Zagreb — 9AA5910 — position and weather

sailwx.info

Track history (hours):
 
Tides and Currents Weather Stations Pressure Air Temp Water Temp Dewpoint Dewpoint Depression Visibility Wind Speed Wind Dir Waves Ship Positions

Zagreb

Last reported at 2016-Feb-14 05:33 UTC. Time now 2016-Feb-14 05:57 UTC.
Position N 53°27' E 006°51'.

Length 229 m; draft 10.5 m.

Type: Cargo ship. MMSI: 238249000.

Date/timePositionNaut miles runAvg speedWind from/ knotsBaromVisibWave heightAir tempDewpointWater temp
2016-Feb-14 05:33N 53°27' E 006°51'0 0.0
2016-Feb-14 04:33N 53°27' E 006°51'0 0.0
2016-Feb-14 03:33N 53°27' E 006°51'0 0.0
2016-Feb-14 02:33N 53°27' E 006°51'0 0.0
2016-Feb-14 01:33N 53°27' E 006°51'0 0.0
2016-Feb-14 00:33N 53°27' E 006°51'0 0.0
2016-Feb-13 23:33N 53°27' E 006°51'0 0.0
2016-Feb-13 22:33N 53°27' E 006°51'0 0.0
2016-Feb-13 21:33N 53°27' E 006°51'0 0.0
2016-Feb-13 20:33N 53°27' E 006°51'0 0.0
2016-Feb-13 19:33N 53°27' E 006°51'0 0.0
2016-Feb-13 18:33N 53°27' E 006°51'0 0.0
2016-Feb-13 17:33N 53°27' E 006°51'0 0.0
2016-Feb-13 16:33N 53°27' E 006°51'0 0.0
2016-Feb-13 15:33N 53°27' E 006°51'0 0.0
2016-Feb-13 14:33N 53°27' E 006°51'0 0.0
2016-Feb-13 13:33N 53°27' E 006°51'0 0.0
2016-Feb-13 12:33N 53°27' E 006°51'0 0.0
2016-Feb-13 11:33N 53°27' E 006°51'0 0.0
2016-Feb-13 10:33N 53°27' E 006°51'0 0.0
2016-Feb-13 09:33N 53°27' E 006°51'0 0.0
2016-Feb-13 08:33N 53°27' E 006°51'0 0.0
2016-Feb-13 07:33N 53°27' E 006°51'0 0.0
2016-Feb-13 06:33N 53°27' E 006°51'0 0.0
2016-Feb-13 05:33N 53°27' E 006°51'0 0.0
2016-Feb-13 04:33N 53°27' E 006°51'0 0.0
2016-Feb-13 03:33N 53°27' E 006°51'0 0.0
2016-Feb-13 02:33N 53°27' E 006°51'0 0.0
2016-Feb-13 01:33N 53°27' E 006°51'0 0.0
2016-Feb-13 00:33N 53°27' E 006°51'0 0.0
2016-Feb-12 23:33N 53°27' E 006°51'0 0.0
2016-Feb-12 22:33N 53°27' E 006°51'0 0.0
2016-Feb-12 21:33N 53°27' E 006°51'0 0.0
2016-Feb-12 20:33N 53°27' E 006°51'0 0.0
2016-Feb-12 19:33N 53°27' E 006°51'0 0.0
2016-Feb-12 18:33N 53°27' E 006°51'0 0.0
2016-Feb-12 17:33N 53°27' E 006°51'0 0.0
2016-Feb-12 16:33N 53°27' E 006°51'0 0.0
2016-Feb-12 15:33N 53°27' E 006°51'0 0.0
2016-Feb-12 14:30N 53°27' E 006°51'0 0.0
2016-Feb-12 13:32N 53°27' E 006°51'0 0.0
2016-Feb-12 12:33N 53°27' E 006°51'0 0.0
2016-Feb-12 11:33N 53°27' E 006°51'0 0.0
2016-Feb-12 10:32N 53°27' E 006°51'0 0.0
2016-Feb-12 09:33N 53°27' E 006°51'0 0.0
2016-Feb-12 08:33N 53°27' E 006°51'0 0.0
2016-Feb-12 07:33N 53°27' E 006°51'0 0.0
2016-Feb-12 06:33N 53°27' E 006°51'0 0.0
2016-Feb-12 05:33N 53°27' E 006°51'0 0.0
2016-Feb-12 04:33N 53°27' E 006°51'0 0.0
2016-Feb-12 03:33N 53°27' E 006°51'0 0.0
2016-Feb-12 02:33N 53°27' E 006°51'0 0.0
2016-Feb-12 01:33N 53°27' E 006°51'0 0.0
2016-Feb-12 00:33N 53°27' E 006°51'0 0.0
2016-Feb-11 23:32N 53°27' E 006°51'0 0.0
2016-Feb-11 22:33N 53°27' E 006°51'0 0.0
2016-Feb-11 21:33N 53°27' E 006°51'0 0.0
2016-Feb-11 20:33N 53°27' E 006°51'0 0.0
2016-Feb-11 19:33N 53°27' E 006°51'0 0.0
2016-Feb-11 18:32N 53°27' E 006°51'0 0.0
2016-Feb-11 17:32N 53°27' E 006°51'0 0.0
2016-Feb-11 16:32N 53°27' E 006°51'0 0.0
2016-Feb-11 15:33N 53°27' E 006°51'0 0.0
2016-Feb-11 14:32N 53°27' E 006°51'0 0.0
2016-Feb-11 13:32N 53°27' E 006°51'1 0.6
2016-Feb-11 12:33N 53°27' E 006°50'7 6.6
2016-Feb-11 11:33N 53°32' E 006°44'9 9.4
2016-Feb-11 10:33N 53°37' E 006°30'8 8.0
2016-Feb-11 09:33N 53°38' E 006°17'4 3.6
2016-Feb-11 08:33N 53°38' E 006°11'0 0.1
2016-Feb-11 07:33N 53°38' E 006°11'0 0.0
2016-Feb-11 06:33N 53°38' E 006°11'0 0.0
2016-Feb-11 05:32N 53°38' E 006°11'0 0.1
2016-Feb-11 04:33N 53°38' E 006°10'0 0.0
2016-Feb-11 03:33N 53°38' E 006°11'0 0.0
2016-Feb-11 02:32N 53°38' E 006°11'0 0.0
2016-Feb-11 01:33N 53°38' E 006°11'0 0.0
2016-Feb-11 00:26N 53°38' E 006°11'0 0.0
2016-Feb-10 23:32N 53°38' E 006°11'0 0.0
2016-Feb-10 22:32N 53°38' E 006°11'0 0.0
2016-Feb-10 21:29N 53°38' E 006°11'0 0.0
2016-Feb-10 20:32N 53°38' E 006°11'0 0.0
2016-Feb-10 19:32N 53°38' E 006°11'0 0.0
2016-Feb-10 18:32N 53°38' E 006°11'0 0.0
2016-Feb-10 17:33N 53°38' E 006°11'0 0.0
2016-Feb-10 16:32N 53°38' E 006°11'0 0.0
2016-Feb-10 15:32N 53°38' E 006°11'0 0.0
2016-Feb-10 14:32N 53°38' E 006°11'0 0.0
2016-Feb-10 13:32N 53°38' E 006°11'0 0.1
2016-Feb-10 12:33N 53°38' E 006°11'0 0.0
2016-Feb-10 11:32N 53°38' E 006°11'0 0.0
2016-Feb-10 10:28N 53°38' E 006°11'0 0.0
2016-Feb-10 09:32N 53°38' E 006°11'0 0.0
2016-Feb-10 08:33N 53°38' E 006°11'0 0.0
2016-Feb-10 07:33N 53°38' E 006°11'0 0.0
2016-Feb-10 06:32N 53°38' E 006°11'0 0.0
2016-Feb-10 05:33N 53°38' E 006°11'0 0.0
2016-Feb-10 04:33N 53°38' E 006°11'0 0.2
2016-Feb-10 03:33N 53°38' E 006°10'0 0.0
2016-Feb-10 02:32N 53°38' E 006°10'0 0.2
2016-Feb-10 01:33N 53°38' E 006°11'0 0.1
2016-Feb-10 00:32N 53°38' E 006°11'0 0.0
2016-Feb-09 23:32N 53°38' E 006°11'0 0.0
2016-Feb-09 22:33N 53°38' E 006°11'0 0.0
2016-Feb-09 21:32N 53°38' E 006°11'0 0.0
2016-Feb-09 20:32N 53°38' E 006°11'0 0.0
2016-Feb-09 19:32N 53°38' E 006°11'0 0.0
2016-Feb-09 18:32N 53°38' E 006°11'0 0.1
2016-Feb-09 17:29N 53°38' E 006°11'0 0.2
2016-Feb-09 16:32N 53°38' E 006°10'0 0.1
2016-Feb-09 15:32N 53°38' E 006°10'0 0.0
2016-Feb-09 14:32N 53°38' E 006°10'0 0.1
2016-Feb-09 13:33N 53°38' E 006°10'0 0.2
2016-Feb-09 12:32N 53°38' E 006°11'0 0.1
2016-Feb-09 11:32N 53°38' E 006°11'0 0.0
2016-Feb-09 10:32N 53°38' E 006°11'0 0.0
2016-Feb-09 09:33N 53°38' E 006°11'0 0.0
2016-Feb-09 08:32N 53°38' E 006°11'0 0.0
2016-Feb-09 07:32N 53°38' E 006°11'0 0.0
2016-Feb-09 06:32N 53°38' E 006°11'0 0.0
2016-Feb-09 05:32N 53°38' E 006°11'0 0.0
2016-Feb-09 04:33N 53°38' E 006°11'0 0.0
2016-Feb-09 03:31N 53°38' E 006°11'0 0.0
2016-Feb-09 02:32N 53°38' E 006°11'0 0.0
2016-Feb-09 01:32N 53°38' E 006°11'0 0.0
2016-Feb-09 00:29N 53°38' E 006°11'0 0.0
2016-Feb-08 23:32N 53°38' E 006°11'0 0.0
2016-Feb-08 22:33N 53°38' E 006°11'0 0.0
2016-Feb-08 21:32N 53°38' E 006°11'0 0.0
2016-Feb-08 20:32N 53°38' E 006°11'0 0.0
2016-Feb-08 19:32N 53°38' E 006°11'0 0.0
2016-Feb-08 18:31N 53°38' E 006°11'0 0.0
2016-Feb-08 17:32N 53°38' E 006°11'0 0.0
2016-Feb-08 16:33N 53°38' E 006°11'0 0.0
2016-Feb-08 15:32N 53°38' E 006°11'0 0.1
2016-Feb-08 14:33N 53°38' E 006°11'0 0.0
2016-Feb-08 13:32N 53°38' E 006°11'0 0.0
2016-Feb-08 12:31N 53°38' E 006°11'0 0.0
2016-Feb-08 11:31N 53°38' E 006°11'0 0.0
2016-Feb-08 10:32N 53°38' E 006°11'0 0.0
2016-Feb-08 09:32N 53°38' E 006°11'0 0.0
2016-Feb-08 08:32N 53°38' E 006°11'0 0.0
2016-Feb-08 07:32N 53°38' E 006°11'0 0.0
2016-Feb-08 06:32N 53°38' E 006°11'0 0.0
2016-Feb-08 05:29N 53°38' E 006°11'0 0.0
2016-Feb-08 04:33N 53°38' E 006°11'0 0.1
2016-Feb-08 03:33N 53°38' E 006°11'0 0.1
2016-Feb-08 02:30N 53°38' E 006°10'0 0.0
2016-Feb-08 01:32N 53°38' E 006°10'0 0.0
2016-Feb-08 00:32N 53°38' E 006°10'0 0.1
2016-Feb-07 23:33N 53°38' E 006°11'0 0.0
2016-Feb-07 22:26N 53°38' E 006°11'0 0.0
2016-Feb-07 21:32N 53°38' E 006°11'0 0.0
2016-Feb-07 20:32N 53°38' E 006°11'0 0.0
2016-Feb-07 19:32N 53°38' E 006°11'0 0.0
2016-Feb-07 18:32N 53°38' E 006°11'0 0.0
2016-Feb-07 17:32N 53°38' E 006°11'0 0.0
2016-Feb-07 16:32N 53°38' E 006°11'0 0.0
2016-Feb-07 15:32N 53°38' E 006°11'0 0.0
2016-Feb-07 14:32N 53°38' E 006°11'0 0.1
2016-Feb-07 13:32N 53°38' E 006°11'0 0.0
2016-Feb-07 12:32N 53°38' E 006°11'0 0.0
2016-Feb-07 11:32N 53°38' E 006°11'0 0.0
2016-Feb-07 10:32N 53°38' E 006°11'0 0.0
2016-Feb-07 09:32N 53°38' E 006°11'0 0.0
2016-Feb-07 08:32N 53°38' E 006°11'0 0.0
2016-Feb-07 07:32N 53°38' E 006°11'0 0.0
2016-Feb-07 06:32N 53°38' E 006°11'0 0.0
2016-Feb-07 05:32N 53°38' E 006°11'0 0.0
2016-Feb-07 04:32N 53°38' E 006°11'0 0.1
2016-Feb-07 03:32N 53°38' E 006°10'0 0.2
2016-Feb-07 02:29N 53°38' E 006°10'0 0.0
2016-Feb-07 01:32N 53°38' E 006°10'0 0.0
2016-Feb-07 00:32N 53°38' E 006°10'0 0.0
2016-Feb-06 23:32N 53°38' E 006°10'0 0.0
2016-Feb-06 22:32N 53°38' E 006°10'0 0.1
2016-Feb-06 21:32N 53°38' E 006°10'0 0.1
2016-Feb-06 20:32N 53°38' E 006°11'0 0.0
2016-Feb-06 19:32N 53°38' E 006°11'0 0.1
2016-Feb-06 18:29N 53°38' E 006°11'0 0.0
2016-Feb-06 17:32N 53°38' E 006°11'0 0.0
2016-Feb-06 16:32N 53°38' E 006°11'0 0.0
2016-Feb-06 15:31N 53°38' E 006°11'0 0.0
2016-Feb-06 14:32N 53°38' E 006°11'0 0.2
2016-Feb-06 13:32N 53°38' E 006°10'0 0.0
2016-Feb-06 12:32N 53°38' E 006°10'0 0.1
2016-Feb-06 11:32N 53°38' E 006°10'0 0.1
2016-Feb-06 10:33N 53°38' E 006°10'0 0.0
2016-Feb-06 09:29N 53°38' E 006°11'0 0.1
2016-Feb-06 08:32N 53°38' E 006°11'0 0.0
2016-Feb-06 07:32N 53°38' E 006°11'0 0.0
2016-Feb-06 06:33N 53°38' E 006°11'0 0.0
2016-Feb-06 05:33N 53°38' E 006°11'0 0.0
2016-Feb-06 04:32N 53°38' E 006°11'0 0.0
2016-Feb-06 03:29N 53°38' E 006°11'0 0.0
2016-Feb-06 02:32N 53°38' E 006°11'0 0.2
2016-Feb-06 01:32N 53°38' E 006°10'0 0.0
2016-Feb-06 00:32N 53°38' E 006°10'0 0.1
2016-Feb-05 23:33N 53°38' E 006°10'0 0.1
2016-Feb-05 22:32N 53°38' E 006°11'0 0.1
2016-Feb-05 21:32N 53°38' E 006°11'0 0.0
2016-Feb-05 20:33N 53°38' E 006°11'0 0.0
2016-Feb-05 19:32N 53°38' E 006°11'0 0.0
2016-Feb-05 18:32N 53°38' E 006°11'0 0.0
2016-Feb-05 17:32N 53°38' E 006°11'0 0.0
2016-Feb-05 16:33N 53°38' E 006°11'0 0.0
2016-Feb-05 15:32N 53°38' E 006°11'0 0.0
2016-Feb-05 14:33N 53°38' E 006°11'0 0.0
2016-Feb-05 13:20N 53°38' E 006°11'0 0.2
2016-Feb-05 12:32N 53°38' E 006°11'0 0.1
2016-Feb-05 11:33N 53°38' E 006°10'0 0.0
2016-Feb-05 10:32N 53°38' E 006°10'0 0.0
2016-Feb-05 09:33N 53°38' E 006°10'0 0.1
2016-Feb-05 08:29N 53°38' E 006°11'0 0.1
2016-Feb-05 07:32N 53°38' E 006°11'0 0.0
2016-Feb-05 06:33N 53°38' E 006°11'0 0.0
2016-Feb-05 05:32N 53°38' E 006°11'0 0.0
2016-Feb-05 04:32N 53°38' E 006°11'0 0.0
2016-Feb-05 03:32N 53°38' E 006°11'0 0.0
2016-Feb-05 02:34N 53°38' E 006°11'0 0.0
2016-Feb-05 01:33N 53°38' E 006°11'0 0.1
2016-Feb-05 00:32N 53°38' E 006°10'0 0.1
2016-Feb-04 23:29N 53°38' E 006°10'0 0.0
2016-Feb-04 22:33N 53°38' E 006°10'0 0.1
2016-Feb-04 21:32N 53°38' E 006°10'0 0.1
2016-Feb-04 20:29N 53°38' E 006°10'0 0.0
2016-Feb-04 19:33N 53°38' E 006°11'0 0.0
2016-Feb-04 18:32N 53°38' E 006°11'0 0.0
2016-Feb-04 17:32N 53°38' E 006°11'0 0.0
2016-Feb-04 16:32N 53°38' E 006°11'0 0.0
2016-Feb-04 15:32N 53°38' E 006°11'0 0.0
2016-Feb-04 14:32N 53°38' E 006°11'0 0.0
2016-Feb-04 13:33N 53°38' E 006°11'0 0.0
2016-Feb-04 12:32N 53°38' E 006°11'0 0.0
2016-Feb-04 11:29N 53°38' E 006°11'0 0.0
2016-Feb-04 10:31N 53°38' E 006°10'0 0.0
2016-Feb-04 09:32N 53°38' E 006°10'0 0.0
2016-Feb-04 08:32N 53°38' E 006°11'0 0.0
2016-Feb-04 07:32N 53°38' E 006°11'0 0.1
2016-Feb-04 06:31N 53°38' E 006°11'  
Track history (hours):
 
Tides and Currents Weather Stations Pressure Air Temp Water Temp Dewpoint Dewpoint Depression Visibility Wind Speed Wind Dir Waves Ship Positions

Zagreb

Last reported at 2016-Feb-14 05:33 UTC. Time now 2016-Feb-14 05:57 UTC.
Position N 53°27' E 006°51'.

Length 229 m; draft 10.5 m.

Type: Cargo ship. MMSI: 238249000.

Date/timePositionNaut miles runAvg speedWind from/ knotsBaromVisibWave heightAir tempDewpointWater temp
2016-Feb-14 05:33N 53°27' E 006°51'0 0.0
2016-Feb-14 04:33N 53°27' E 006°51'0 0.0
2016-Feb-14 03:33N 53°27' E 006°51'0 0.0
2016-Feb-14 02:33N 53°27' E 006°51'0 0.0
2016-Feb-14 01:33N 53°27' E 006°51'0 0.0
2016-Feb-14 00:33N 53°27' E 006°51'0 0.0
2016-Feb-13 23:33N 53°27' E 006°51'0 0.0
2016-Feb-13 22:33N 53°27' E 006°51'0 0.0
2016-Feb-13 21:33N 53°27' E 006°51'0 0.0
2016-Feb-13 20:33N 53°27' E 006°51'0 0.0
2016-Feb-13 19:33N 53°27' E 006°51'0 0.0
2016-Feb-13 18:33N 53°27' E 006°51'0 0.0
2016-Feb-13 17:33N 53°27' E 006°51'0 0.0
2016-Feb-13 16:33N 53°27' E 006°51'0 0.0
2016-Feb-13 15:33N 53°27' E 006°51'0 0.0
2016-Feb-13 14:33N 53°27' E 006°51'0 0.0
2016-Feb-13 13:33N 53°27' E 006°51'0 0.0
2016-Feb-13 12:33N 53°27' E 006°51'0 0.0
2016-Feb-13 11:33N 53°27' E 006°51'0 0.0
2016-Feb-13 10:33N 53°27' E 006°51'0 0.0
2016-Feb-13 09:33N 53°27' E 006°51'0 0.0
2016-Feb-13 08:33N 53°27' E 006°51'0 0.0
2016-Feb-13 07:33N 53°27' E 006°51'0 0.0
2016-Feb-13 06:33N 53°27' E 006°51'0 0.0
2016-Feb-13 05:33N 53°27' E 006°51'0 0.0
2016-Feb-13 04:33N 53°27' E 006°51'0 0.0
2016-Feb-13 03:33N 53°27' E 006°51'0 0.0
2016-Feb-13 02:33N 53°27' E 006°51'0 0.0
2016-Feb-13 01:33N 53°27' E 006°51'0 0.0
2016-Feb-13 00:33N 53°27' E 006°51'0 0.0
2016-Feb-12 23:33N 53°27' E 006°51'0 0.0
2016-Feb-12 22:33N 53°27' E 006°51'0 0.0
2016-Feb-12 21:33N 53°27' E 006°51'0 0.0
2016-Feb-12 20:33N 53°27' E 006°51'0 0.0
2016-Feb-12 19:33N 53°27' E 006°51'0 0.0
2016-Feb-12 18:33N 53°27' E 006°51'0 0.0
2016-Feb-12 17:33N 53°27' E 006°51'0 0.0
2016-Feb-12 16:33N 53°27' E 006°51'0 0.0
2016-Feb-12 15:33N 53°27' E 006°51'0 0.0
2016-Feb-12 14:30N 53°27' E 006°51'0 0.0
2016-Feb-12 13:32N 53°27' E 006°51'0 0.0
2016-Feb-12 12:33N 53°27' E 006°51'0 0.0
2016-Feb-12 11:33N 53°27' E 006°51'0 0.0
2016-Feb-12 10:32N 53°27' E 006°51'0 0.0
2016-Feb-12 09:33N 53°27' E 006°51'0 0.0
2016-Feb-12 08:33N 53°27' E 006°51'0 0.0
2016-Feb-12 07:33N 53°27' E 006°51'0 0.0
2016-Feb-12 06:33N 53°27' E 006°51'0 0.0
2016-Feb-12 05:33N 53°27' E 006°51'0 0.0
2016-Feb-12 04:33N 53°27' E 006°51'0 0.0
2016-Feb-12 03:33N 53°27' E 006°51'0 0.0
2016-Feb-12 02:33N 53°27' E 006°51'0 0.0
2016-Feb-12 01:33N 53°27' E 006°51'0 0.0
2016-Feb-12 00:33N 53°27' E 006°51'0 0.0
2016-Feb-11 23:32N 53°27' E 006°51'0 0.0
2016-Feb-11 22:33N 53°27' E 006°51'0 0.0
2016-Feb-11 21:33N 53°27' E 006°51'0 0.0
2016-Feb-11 20:33N 53°27' E 006°51'0 0.0
2016-Feb-11 19:33N 53°27' E 006°51'0 0.0
2016-Feb-11 18:32N 53°27' E 006°51'0 0.0
2016-Feb-11 17:32N 53°27' E 006°51'0 0.0
2016-Feb-11 16:32N 53°27' E 006°51'0 0.0
2016-Feb-11 15:33N 53°27' E 006°51'0 0.0
2016-Feb-11 14:32N 53°27' E 006°51'0 0.0
2016-Feb-11 13:32N 53°27' E 006°51'1 0.6
2016-Feb-11 12:33N 53°27' E 006°50'7 6.6
2016-Feb-11 11:33N 53°32' E 006°44'9 9.4
2016-Feb-11 10:33N 53°37' E 006°30'8 8.0
2016-Feb-11 09:33N 53°38' E 006°17'4 3.6
2016-Feb-11 08:33N 53°38' E 006°11'0 0.1
2016-Feb-11 07:33N 53°38' E 006°11'0 0.0
2016-Feb-11 06:33N 53°38' E 006°11'0 0.0
2016-Feb-11 05:32N 53°38' E 006°11'0 0.1
2016-Feb-11 04:33N 53°38' E 006°10'0 0.0
2016-Feb-11 03:33N 53°38' E 006°11'0 0.0
2016-Feb-11 02:32N 53°38' E 006°11'0 0.0
2016-Feb-11 01:33N 53°38' E 006°11'0 0.0
2016-Feb-11 00:26N 53°38' E 006°11'0 0.0
2016-Feb-10 23:32N 53°38' E 006°11'0 0.0
2016-Feb-10 22:32N 53°38' E 006°11'0 0.0
2016-Feb-10 21:29N 53°38' E 006°11'0 0.0
2016-Feb-10 20:32N 53°38' E 006°11'0 0.0
2016-Feb-10 19:32N 53°38' E 006°11'0 0.0
2016-Feb-10 18:32N 53°38' E 006°11'0 0.0
2016-Feb-10 17:33N 53°38' E 006°11'0 0.0
2016-Feb-10 16:32N 53°38' E 006°11'0 0.0
2016-Feb-10 15:32N 53°38' E 006°11'0 0.0
2016-Feb-10 14:32N 53°38' E 006°11'0 0.0
2016-Feb-10 13:32N 53°38' E 006°11'0 0.1
2016-Feb-10 12:33N 53°38' E 006°11'0 0.0
2016-Feb-10 11:32N 53°38' E 006°11'0 0.0
2016-Feb-10 10:28N 53°38' E 006°11'0 0.0
2016-Feb-10 09:32N 53°38' E 006°11'0 0.0
2016-Feb-10 08:33N 53°38' E 006°11'0 0.0
2016-Feb-10 07:33N 53°38' E 006°11'0 0.0
2016-Feb-10 06:32N 53°38' E 006°11'0 0.0
2016-Feb-10 05:33N 53°38' E 006°11'0 0.0
2016-Feb-10 04:33N 53°38' E 006°11'0 0.2
2016-Feb-10 03:33N 53°38' E 006°10'0 0.0
2016-Feb-10 02:32N 53°38' E 006°10'0 0.2
2016-Feb-10 01:33N 53°38' E 006°11'0 0.1
2016-Feb-10 00:32N 53°38' E 006°11'0 0.0
2016-Feb-09 23:32N 53°38' E 006°11'0 0.0
2016-Feb-09 22:33N 53°38' E 006°11'0 0.0
2016-Feb-09 21:32N 53°38' E 006°11'0 0.0
2016-Feb-09 20:32N 53°38' E 006°11'0 0.0
2016-Feb-09 19:32N 53°38' E 006°11'0 0.0
2016-Feb-09 18:32N 53°38' E 006°11'0 0.1
2016-Feb-09 17:29N 53°38' E 006°11'0 0.2
2016-Feb-09 16:32N 53°38' E 006°10'0 0.1
2016-Feb-09 15:32N 53°38' E 006°10'0 0.0
2016-Feb-09 14:32N 53°38' E 006°10'0 0.1
2016-Feb-09 13:33N 53°38' E 006°10'0 0.2
2016-Feb-09 12:32N 53°38' E 006°11'0 0.1
2016-Feb-09 11:32N 53°38' E 006°11'0 0.0
2016-Feb-09 10:32N 53°38' E 006°11'0 0.0
2016-Feb-09 09:33N 53°38' E 006°11'0 0.0
2016-Feb-09 08:32N 53°38' E 006°11'0 0.0
2016-Feb-09 07:32N 53°38' E 006°11'0 0.0
2016-Feb-09 06:32N 53°38' E 006°11'0 0.0
2016-Feb-09 05:32N 53°38' E 006°11'0 0.0
2016-Feb-09 04:33N 53°38' E 006°11'0 0.0
2016-Feb-09 03:31N 53°38' E 006°11'0 0.0
2016-Feb-09 02:32N 53°38' E 006°11'0 0.0
2016-Feb-09 01:32N 53°38' E 006°11'0 0.0
2016-Feb-09 00:29N 53°38' E 006°11'0 0.0
2016-Feb-08 23:32N 53°38' E 006°11'0 0.0
2016-Feb-08 22:33N 53°38' E 006°11'0 0.0
2016-Feb-08 21:32N 53°38' E 006°11'0 0.0
2016-Feb-08 20:32N 53°38' E 006°11'0 0.0
2016-Feb-08 19:32N 53°38' E 006°11'0 0.0
2016-Feb-08 18:31N 53°38' E 006°11'0 0.0
2016-Feb-08 17:32N 53°38' E 006°11'0 0.0
2016-Feb-08 16:33N 53°38' E 006°11'0 0.0
2016-Feb-08 15:32N 53°38' E 006°11'0 0.1
2016-Feb-08 14:33N 53°38' E 006°11'0 0.0
2016-Feb-08 13:32N 53°38' E 006°11'0 0.0
2016-Feb-08 12:31N 53°38' E 006°11'0 0.0
2016-Feb-08 11:31N 53°38' E 006°11'0 0.0
2016-Feb-08 10:32N 53°38' E 006°11'0 0.0
2016-Feb-08 09:32N 53°38' E 006°11'0 0.0
2016-Feb-08 08:32N 53°38' E 006°11'0 0.0
2016-Feb-08 07:32N 53°38' E 006°11'0 0.0
2016-Feb-08 06:32N 53°38' E 006°11'0 0.0
2016-Feb-08 05:29N 53°38' E 006°11'0 0.0
2016-Feb-08 04:33N 53°38' E 006°11'0 0.1
2016-Feb-08 03:33N 53°38' E 006°11'0 0.1
2016-Feb-08 02:30N 53°38' E 006°10'0 0.0
2016-Feb-08 01:32N 53°38' E 006°10'0 0.0
2016-Feb-08 00:32N 53°38' E 006°10'0 0.1
2016-Feb-07 23:33N 53°38' E 006°11'0 0.0
2016-Feb-07 22:26N 53°38' E 006°11'0 0.0
2016-Feb-07 21:32N 53°38' E 006°11'0 0.0
2016-Feb-07 20:32N 53°38' E 006°11'0 0.0
2016-Feb-07 19:32N 53°38' E 006°11'0 0.0
2016-Feb-07 18:32N 53°38' E 006°11'0 0.0
2016-Feb-07 17:32N 53°38' E 006°11'0 0.0
2016-Feb-07 16:32N 53°38' E 006°11'0 0.0
2016-Feb-07 15:32N 53°38' E 006°11'0 0.0
2016-Feb-07 14:32N 53°38' E 006°11'0 0.1
2016-Feb-07 13:32N 53°38' E 006°11'0 0.0
2016-Feb-07 12:32N 53°38' E 006°11'0 0.0
2016-Feb-07 11:32N 53°38' E 006°11'0 0.0
2016-Feb-07 10:32N 53°38' E 006°11'0 0.0
2016-Feb-07 09:32N 53°38' E 006°11'0 0.0
2016-Feb-07 08:32N 53°38' E 006°11'0 0.0
2016-Feb-07 07:32N 53°38' E 006°11'0 0.0
2016-Feb-07 06:32N 53°38' E 006°11'0 0.0
2016-Feb-07 05:32N 53°38' E 006°11'0 0.0
2016-Feb-07 04:32N 53°38' E 006°11'0 0.1
2016-Feb-07 03:32N 53°38' E 006°10'0 0.2
2016-Feb-07 02:29N 53°38' E 006°10'0 0.0
2016-Feb-07 01:32N 53°38' E 006°10'0 0.0
2016-Feb-07 00:32N 53°38' E 006°10'0 0.0
2016-Feb-06 23:32N 53°38' E 006°10'0 0.0
2016-Feb-06 22:32N 53°38' E 006°10'0 0.1
2016-Feb-06 21:32N 53°38' E 006°10'0 0.1
2016-Feb-06 20:32N 53°38' E 006°11'0 0.0
2016-Feb-06 19:32N 53°38' E 006°11'0 0.1
2016-Feb-06 18:29N 53°38' E 006°11'0 0.0
2016-Feb-06 17:32N 53°38' E 006°11'0 0.0
2016-Feb-06 16:32N 53°38' E 006°11'0 0.0
2016-Feb-06 15:31N 53°38' E 006°11'0 0.0
2016-Feb-06 14:32N 53°38' E 006°11'0 0.2
2016-Feb-06 13:32N 53°38' E 006°10'0 0.0
2016-Feb-06 12:32N 53°38' E 006°10'0 0.1
2016-Feb-06 11:32N 53°38' E 006°10'0 0.1
2016-Feb-06 10:33N 53°38' E 006°10'0 0.0
2016-Feb-06 09:29N 53°38' E 006°11'0 0.1
2016-Feb-06 08:32N 53°38' E 006°11'0 0.0
2016-Feb-06 07:32N 53°38' E 006°11'0 0.0
2016-Feb-06 06:33N 53°38' E 006°11'0 0.0
2016-Feb-06 05:33N 53°38' E 006°11'0 0.0
2016-Feb-06 04:32N 53°38' E 006°11'0 0.0
2016-Feb-06 03:29N 53°38' E 006°11'0 0.0
2016-Feb-06 02:32N 53°38' E 006°11'0 0.2
2016-Feb-06 01:32N 53°38' E 006°10'0 0.0
2016-Feb-06 00:32N 53°38' E 006°10'0 0.1
2016-Feb-05 23:33N 53°38' E 006°10'0 0.1
2016-Feb-05 22:32N 53°38' E 006°11'0 0.1
2016-Feb-05 21:32N 53°38' E 006°11'0 0.0
2016-Feb-05 20:33N 53°38' E 006°11'0 0.0
2016-Feb-05 19:32N 53°38' E 006°11'0 0.0
2016-Feb-05 18:32N 53°38' E 006°11'0 0.0
2016-Feb-05 17:32N 53°38' E 006°11'0 0.0
2016-Feb-05 16:33N 53°38' E 006°11'0 0.0
2016-Feb-05 15:32N 53°38' E 006°11'0 0.0
2016-Feb-05 14:33N 53°38' E 006°11'0 0.0
2016-Feb-05 13:20N 53°38' E 006°11'0 0.2
2016-Feb-05 12:32N 53°38' E 006°11'0 0.1
2016-Feb-05 11:33N 53°38' E 006°10'0 0.0
2016-Feb-05 10:32N 53°38' E 006°10'0 0.0
2016-Feb-05 09:33N 53°38' E 006°10'0 0.1
2016-Feb-05 08:29N 53°38' E 006°11'0 0.1
2016-Feb-05 07:32N 53°38' E 006°11'0 0.0
2016-Feb-05 06:33N 53°38' E 006°11'0 0.0
2016-Feb-05 05:32N 53°38' E 006°11'0 0.0
2016-Feb-05 04:32N 53°38' E 006°11'0 0.0
2016-Feb-05 03:32N 53°38' E 006°11'0 0.0
2016-Feb-05 02:34N 53°38' E 006°11'0 0.0
2016-Feb-05 01:33N 53°38' E 006°11'0 0.1
2016-Feb-05 00:32N 53°38' E 006°10'0 0.1
2016-Feb-04 23:29N 53°38' E 006°10'0 0.0
2016-Feb-04 22:33N 53°38' E 006°10'0 0.1
2016-Feb-04 21:32N 53°38' E 006°10'0 0.1
2016-Feb-04 20:29N 53°38' E 006°10'0 0.0
2016-Feb-04 19:33N 53°38' E 006°11'0 0.0
2016-Feb-04 18:32N 53°38' E 006°11'0 0.0
2016-Feb-04 17:32N 53°38' E 006°11'0 0.0
2016-Feb-04 16:32N 53°38' E 006°11'0 0.0
2016-Feb-04 15:32N 53°38' E 006°11'0 0.0
2016-Feb-04 14:32N 53°38' E 006°11'0 0.0
2016-Feb-04 13:33N 53°38' E 006°11'0 0.0
2016-Feb-04 12:32N 53°38' E 006°11'0 0.0
2016-Feb-04 11:29N 53°38' E 006°11'0 0.0
2016-Feb-04 10:31N 53°38' E 006°10'0 0.0
2016-Feb-04 09:32N 53°38' E 006°10'0 0.0
2016-Feb-04 08:32N 53°38' E 006°11'0 0.0
2016-Feb-04 07:32N 53°38' E 006°11'0 0.1
2016-Feb-04 06:31N 53°38' E 006°11'  

Dump ship's entire track history